sensor_id;sensor_type;location;lat;lon;timestamp;temperature;humidity
75387;DHT22;63966;47.914;22.266;2023-05-25T00:00:54;13.88;96.06
75387;DHT22;63966;47.914;22.266;2023-05-25T00:04:05;13.82;96.18
75387;DHT22;63966;47.914;22.266;2023-05-25T00:07:08;13.82;96.15
75387;DHT22;63966;47.914;22.266;2023-05-25T00:10:12;13.85;96.07
75387;DHT22;63966;47.914;22.266;2023-05-25T00:13:15;13.78;96.10
75387;DHT22;63966;47.914;22.266;2023-05-25T00:16:19;13.79;96.08
75387;DHT22;63966;47.914;22.266;2023-05-25T00:19:22;13.74;96.18
75387;DHT22;63966;47.914;22.266;2023-05-25T00:22:27;13.68;96.28
75387;DHT22;63966;47.914;22.266;2023-05-25T00:25:31;13.64;96.40
75387;DHT22;63966;47.914;22.266;2023-05-25T00:28:34;13.60;96.55
75387;DHT22;63966;47.914;22.266;2023-05-25T00:31:38;13.58;96.67
75387;DHT22;63966;47.914;22.266;2023-05-25T00:34:41;13.54;96.72
75387;DHT22;63966;47.914;22.266;2023-05-25T00:37:45;13.51;96.78
75387;DHT22;63966;47.914;22.266;2023-05-25T00:40:52;13.53;96.74
75387;DHT22;63966;47.914;22.266;2023-05-25T00:43:56;13.50;96.81
75387;DHT22;63966;47.914;22.266;2023-05-25T00:47:00;13.51;96.87
75387;DHT22;63966;47.914;22.266;2023-05-25T00:50:08;13.47;96.83
75387;DHT22;63966;47.914;22.266;2023-05-25T00:53:13;13.46;96.72
75387;DHT22;63966;47.914;22.266;2023-05-25T00:56:23;13.41;96.82
75387;DHT22;63966;47.914;22.266;2023-05-25T00:59:32;13.41;96.91
75387;DHT22;63966;47.914;22.266;2023-05-25T01:02:40;13.34;96.96
75387;DHT22;63966;47.914;22.266;2023-05-25T01:05:47;13.39;96.90
75387;DHT22;63966;47.914;22.266;2023-05-25T01:08:57;13.34;96.96
75387;DHT22;63966;47.914;22.266;2023-05-25T01:12:04;13.36;96.93
75387;DHT22;63966;47.914;22.266;2023-05-25T01:15:08;13.36;96.80
75387;DHT22;63966;47.914;22.266;2023-05-25T01:18:15;13.34;96.70
75387;DHT22;63966;47.914;22.266;2023-05-25T01:25:00;13.20;97.08
75387;DHT22;63966;47.914;22.266;2023-05-25T01:28:19;13.26;97.06
75387;DHT22;63966;47.914;22.266;2023-05-25T01:31:24;13.17;97.10
75387;DHT22;63966;47.914;22.266;2023-05-25T01:34:29;13.13;97.28
75387;DHT22;63966;47.914;22.266;2023-05-25T01:37:36;13.12;97.29
75387;DHT22;63966;47.914;22.266;2023-05-25T01:40:43;13.14;97.20
75387;DHT22;63966;47.914;22.266;2023-05-25T01:43:46;13.07;97.24
75387;DHT22;63966;47.914;22.266;2023-05-25T01:46:55;13.13;97.11
75387;DHT22;63966;47.914;22.266;2023-05-25T01:50:11;13.10;97.04
75387;DHT22;63966;47.914;22.266;2023-05-25T01:53:35;13.10;96.94
75387;DHT22;63966;47.914;22.266;2023-05-25T01:56:40;13.02;97.11
75387;DHT22;63966;47.914;22.266;2023-05-25T01:59:46;12.99;97.22
75387;DHT22;63966;47.914;22.266;2023-05-25T02:02:50;12.99;97.10
75387;DHT22;63966;47.914;22.266;2023-05-25T02:05:55;12.97;97.09
75387;DHT22;63966;47.914;22.266;2023-05-25T02:08:59;12.93;97.16
75387;DHT22;63966;47.914;22.266;2023-05-25T02:12:03;12.86;97.32
75387;DHT22;63966;47.914;22.266;2023-05-25T02:15:08;12.93;97.51
75387;DHT22;63966;47.914;22.266;2023-05-25T02:18:11;12.89;97.45
75387;DHT22;63966;47.914;22.266;2023-05-25T02:21:15;12.93;97.40
75387;DHT22;63966;47.914;22.266;2023-05-25T02:24:20;12.95;97.24
75387;DHT22;63966;47.914;22.266;2023-05-25T02:27:25;12.89;97.23
75387;DHT22;63966;47.914;22.266;2023-05-25T02:30:28;12.93;97.09
75387;DHT22;63966;47.914;22.266;2023-05-25T02:33:33;12.93;96.98
75387;DHT22;63966;47.914;22.266;2023-05-25T02:36:36;12.93;96.91
75387;DHT22;63966;47.914;22.266;2023-05-25T02:39:41;12.92;96.76
75387;DHT22;63966;47.914;22.266;2023-05-25T02:42:44;12.93;96.71
75387;DHT22;63966;47.914;22.266;2023-05-25T02:45:48;12.89;96.86
75387;DHT22;63966;47.914;22.266;2023-05-25T02:48:51;12.85;96.93
75387;DHT22;63966;47.914;22.266;2023-05-25T02:51:54;12.91;96.93
75387;DHT22;63966;47.914;22.266;2023-05-25T02:54:58;12.97;96.80
75387;DHT22;63966;47.914;22.266;2023-05-25T02:58:07;13.02;96.47
75387;DHT22;63966;47.914;22.266;2023-05-25T03:01:34;13.07;96.20
75387;DHT22;63966;47.914;22.266;2023-05-25T03:04:37;13.07;96.00
75387;DHT22;63966;47.914;22.266;2023-05-25T03:07:41;13.10;96.02
75387;DHT22;63966;47.914;22.266;2023-05-25T03:10:45;13.14;95.74
75387;DHT22;63966;47.914;22.266;2023-05-25T03:13:49;13.16;95.74
75387;DHT22;63966;47.914;22.266;2023-05-25T03:16:54;13.16;95.60
75387;DHT22;63966;47.914;22.266;2023-05-25T03:19:58;13.24;95.27
75387;DHT22;63966;47.914;22.266;2023-05-25T03:23:02;13.27;95.27
75387;DHT22;63966;47.914;22.266;2023-05-25T03:26:05;13.30;95.03
75387;DHT22;63966;47.914;22.266;2023-05-25T03:29:09;13.34;94.97
75387;DHT22;63966;47.914;22.266;2023-05-25T03:32:12;13.41;94.69
75387;DHT22;63966;47.914;22.266;2023-05-25T03:35:16;13.48;94.31
75387;DHT22;63966;47.914;22.266;2023-05-25T03:38:19;13.53;94.26
75387;DHT22;63966;47.914;22.266;2023-05-25T03:41:23;13.60;93.94
75387;DHT22;63966;47.914;22.266;2023-05-25T03:44:27;13.69;93.75
75387;DHT22;63966;47.914;22.266;2023-05-25T03:47:30;13.69;93.74
75387;DHT22;63966;47.914;22.266;2023-05-25T03:50:33;13.81;93.32
75387;DHT22;63966;47.914;22.266;2023-05-25T03:53:37;13.83;93.21
75387;DHT22;63966;47.914;22.266;2023-05-25T03:56:42;13.99;92.72
75387;DHT22;63966;47.914;22.266;2023-05-25T03:59:46;14.10;92.45
75387;DHT22;63966;47.914;22.266;2023-05-25T04:02:49;14.22;91.99
75387;DHT22;63966;47.914;22.266;2023-05-25T04:05:53;14.27;91.84
75387;DHT22;63966;47.914;22.266;2023-05-25T04:08:56;14.34;91.42
75387;DHT22;63966;47.914;22.266;2023-05-25T04:12:03;14.46;91.18
75387;DHT22;63966;47.914;22.266;2023-05-25T04:15:07;14.61;90.86
75387;DHT22;63966;47.914;22.266;2023-05-25T04:18:22;14.75;90.44
75387;DHT22;63966;47.914;22.266;2023-05-25T04:21:26;14.80;90.16
75387;DHT22;63966;47.914;22.266;2023-05-25T04:24:29;14.96;89.77
75387;DHT22;63966;47.914;22.266;2023-05-25T04:27:34;15.16;89.13
75387;DHT22;63966;47.914;22.266;2023-05-25T04:30:39;15.32;88.56
75387;DHT22;63966;47.914;22.266;2023-05-25T04:34:03;15.56;87.30
75387;DHT22;63966;47.914;22.266;2023-05-25T04:37:14;15.94;86.61
75387;DHT22;63966;47.914;22.266;2023-05-25T04:40:17;16.30;84.98
75387;DHT22;63966;47.914;22.266;2023-05-25T04:43:23;16.49;84.25
75387;DHT22;63966;47.914;22.266;2023-05-25T04:46:28;17.00;82.50
75387;DHT22;63966;47.914;22.266;2023-05-25T04:49:32;17.34;81.79
75387;DHT22;63966;47.914;22.266;2023-05-25T04:52:36;18.13;78.18
75387;DHT22;63966;47.914;22.266;2023-05-25T04:55:39;18.44;77.28
75387;DHT22;63966;47.914;22.266;2023-05-25T04:58:43;18.18;77.09
75387;DHT22;63966;47.914;22.266;2023-05-25T05:01:47;18.96;75.96
75387;DHT22;63966;47.914;22.266;2023-05-25T05:04:52;18.52;75.21
75387;DHT22;63966;47.914;22.266;2023-05-25T05:07:56;18.57;76.73
75387;DHT22;63966;47.914;22.266;2023-05-25T05:11:00;18.81;75.43
75387;DHT22;63966;47.914;22.266;2023-05-25T05:14:04;20.25;72.09
75387;DHT22;63966;47.914;22.266;2023-05-25T05:17:07;22.56;64.21
75387;DHT22;63966;47.914;22.266;2023-05-25T05:20:11;23.57;59.46
75387;DHT22;63966;47.914;22.266;2023-05-25T05:23:14;23.93;57.51
75387;DHT22;63966;47.914;22.266;2023-05-25T05:26:18;24.47;56.29
75387;DHT22;63966;47.914;22.266;2023-05-25T05:29:23;24.29;55.58
75387;DHT22;63966;47.914;22.266;2023-05-25T05:32:27;25.49;53.50
75387;DHT22;63966;47.914;22.266;2023-05-25T05:35:32;25.77;52.60
75387;DHT22;63966;47.914;22.266;2023-05-25T05:38:43;26.22;51.70
75387;DHT22;63966;47.914;22.266;2023-05-25T05:41:49;26.09;51.66
75387;DHT22;63966;47.914;22.266;2023-05-25T05:44:53;26.50;52.08
75387;DHT22;63966;47.914;22.266;2023-05-25T05:47:56;26.80;50.98
75387;DHT22;63966;47.914;22.266;2023-05-25T05:51:05;27.12;49.48
75387;DHT22;63966;47.914;22.266;2023-05-25T05:54:10;27.34;48.51
75387;DHT22;63966;47.914;22.266;2023-05-25T05:57:13;27.10;49.43
75387;DHT22;63966;47.914;22.266;2023-05-25T06:00:18;26.80;49.08
75387;DHT22;63966;47.914;22.266;2023-05-25T06:03:23;26.90;49.55
75387;DHT22;63966;47.914;22.266;2023-05-25T06:06:28;27.88;48.03
75387;DHT22;63966;47.914;22.266;2023-05-25T06:09:32;27.82;47.89
75387;DHT22;63966;47.914;22.266;2023-05-25T06:12:35;28.20;48.60
75387;DHT22;63966;47.914;22.266;2023-05-25T06:15:39;28.40;48.31
75387;DHT22;63966;47.914;22.266;2023-05-25T06:18:47;28.25;46.49
75387;DHT22;63966;47.914;22.266;2023-05-25T06:21:50;28.48;48.25
75387;DHT22;63966;47.914;22.266;2023-05-25T06:24:56;27.90;49.15
75387;DHT22;63966;47.914;22.266;2023-05-25T06:28:01;29.00;46.43
75387;DHT22;63966;47.914;22.266;2023-05-25T06:31:04;29.37;45.13
75387;DHT22;63966;47.914;22.266;2023-05-25T06:34:08;29.67;43.16
75387;DHT22;63966;47.914;22.266;2023-05-25T06:37:12;30.11;43.33
75387;DHT22;63966;47.914;22.266;2023-05-25T06:40:17;30.42;42.99
75387;DHT22;63966;47.914;22.266;2023-05-25T06:43:21;30.25;45.76
75387;DHT22;63966;47.914;22.266;2023-05-25T06:46:43;29.86;41.86
75387;DHT22;63966;47.914;22.266;2023-05-25T06:49:50;29.88;42.81
75387;DHT22;63966;47.914;22.266;2023-05-25T06:52:53;29.47;46.30
75387;DHT22;63966;47.914;22.266;2023-05-25T06:55:56;29.45;42.84
75387;DHT22;63966;47.914;22.266;2023-05-25T06:59:01;29.89;42.40
75387;DHT22;63966;47.914;22.266;2023-05-25T07:02:04;29.38;44.96
75387;DHT22;63966;47.914;22.266;2023-05-25T07:05:08;29.45;44.79
75387;DHT22;63966;47.914;22.266;2023-05-25T07:08:12;29.56;43.59
75387;DHT22;63966;47.914;22.266;2023-05-25T07:11:16;30.11;41.97
75387;DHT22;63966;47.914;22.266;2023-05-25T07:14:23;30.01;45.23
75387;DHT22;63966;47.914;22.266;2023-05-25T07:17:26;30.05;44.63
75387;DHT22;63966;47.914;22.266;2023-05-25T07:20:30;30.08;42.81
75387;DHT22;63966;47.914;22.266;2023-05-25T07:23:37;30.71;41.92
75387;DHT22;63966;47.914;22.266;2023-05-25T07:26:42;30.52;42.10
75387;DHT22;63966;47.914;22.266;2023-05-25T07:29:46;30.13;41.31
75387;DHT22;63966;47.914;22.266;2023-05-25T07:32:50;30.95;40.37
75387;DHT22;63966;47.914;22.266;2023-05-25T07:35:54;30.81;39.42
75387;DHT22;63966;47.914;22.266;2023-05-25T07:38:58;31.45;40.01
75387;DHT22;63966;47.914;22.266;2023-05-25T07:42:02;31.79;38.71
75387;DHT22;63966;47.914;22.266;2023-05-25T07:45:05;31.58;37.82
75387;DHT22;63966;47.914;22.266;2023-05-25T07:48:09;32.14;37.48
75387;DHT22;63966;47.914;22.266;2023-05-25T07:51:13;32.30;38.87
75387;DHT22;63966;47.914;22.266;2023-05-25T07:54:17;31.32;39.97
75387;DHT22;63966;47.914;22.266;2023-05-25T07:57:21;31.46;40.23
75387;DHT22;63966;47.914;22.266;2023-05-25T08:00:24;30.18;42.02
75387;DHT22;63966;47.914;22.266;2023-05-25T08:03:28;30.91;41.74
75387;DHT22;63966;47.914;22.266;2023-05-25T08:06:50;31.85;39.13
75387;DHT22;63966;47.914;22.266;2023-05-25T08:09:54;32.21;38.74
75387;DHT22;63966;47.914;22.266;2023-05-25T08:12:57;32.02;40.55
75387;DHT22;63966;47.914;22.266;2023-05-25T08:16:01;32.37;39.78
75387;DHT22;63966;47.914;22.266;2023-05-25T08:19:05;32.59;40.46
75387;DHT22;63966;47.914;22.266;2023-05-25T08:22:10;30.88;41.87
75387;DHT22;63966;47.914;22.266;2023-05-25T08:25:14;31.49;41.62
75387;DHT22;63966;47.914;22.266;2023-05-25T08:28:21;31.50;42.58
75387;DHT22;63966;47.914;22.266;2023-05-25T08:31:24;31.50;40.97
75387;DHT22;63966;47.914;22.266;2023-05-25T08:34:28;31.55;41.27
75387;DHT22;63966;47.914;22.266;2023-05-25T08:37:32;31.42;42.99
75387;DHT22;63966;47.914;22.266;2023-05-25T08:40:37;31.65;41.05
75387;DHT22;63966;47.914;22.266;2023-05-25T08:43:43;32.34;39.30
75387;DHT22;63966;47.914;22.266;2023-05-25T08:46:48;31.12;41.16
75387;DHT22;63966;47.914;22.266;2023-05-25T08:49:53;28.41;48.18
75387;DHT22;63966;47.914;22.266;2023-05-25T08:53:02;27.76;49.18
75387;DHT22;63966;47.914;22.266;2023-05-25T08:56:19;26.97;51.04
75387;DHT22;63966;47.914;22.266;2023-05-25T08:59:27;26.31;53.33
75387;DHT22;63966;47.914;22.266;2023-05-25T09:02:49;26.39;52.69
75387;DHT22;63966;47.914;22.266;2023-05-25T09:05:55;26.25;55.55
75387;DHT22;63966;47.914;22.266;2023-05-25T09:08:59;26.17;54.49
75387;DHT22;63966;47.914;22.266;2023-05-25T09:12:03;25.80;54.47
75387;DHT22;63966;47.914;22.266;2023-05-25T09:15:10;25.91;53.66
75387;DHT22;63966;47.914;22.266;2023-05-25T09:18:14;26.04;54.65
75387;DHT22;63966;47.914;22.266;2023-05-25T09:21:17;26.09;56.80
75387;DHT22;63966;47.914;22.266;2023-05-25T09:24:21;26.04;53.45
75387;DHT22;63966;47.914;22.266;2023-05-25T09:27:25;25.77;55.88
75387;DHT22;63966;47.914;22.266;2023-05-25T09:30:29;26.02;53.27
75387;DHT22;63966;47.914;22.266;2023-05-25T09:33:38;25.95;56.39
75387;DHT22;63966;47.914;22.266;2023-05-25T09:36:43;26.21;52.38
75387;DHT22;63966;47.914;22.266;2023-05-25T09:39:47;25.69;53.55
75387;DHT22;63966;47.914;22.266;2023-05-25T09:42:50;25.91;54.37
75387;DHT22;63966;47.914;22.266;2023-05-25T09:45:55;26.17;53.90
75387;DHT22;63966;47.914;22.266;2023-05-25T09:48:59;26.12;52.85
75387;DHT22;63966;47.914;22.266;2023-05-25T09:52:03;26.05;52.93
75387;DHT22;63966;47.914;22.266;2023-05-25T09:55:09;26.12;53.32
75387;DHT22;63966;47.914;22.266;2023-05-25T09:58:12;26.32;52.34
75387;DHT22;63966;47.914;22.266;2023-05-25T10:01:16;26.31;53.23
75387;DHT22;63966;47.914;22.266;2023-05-25T10:04:19;26.25;53.36
75387;DHT22;63966;47.914;22.266;2023-05-25T10:07:25;26.09;53.40
75387;DHT22;63966;47.914;22.266;2023-05-25T10:10:29;26.15;54.12
75387;DHT22;63966;47.914;22.266;2023-05-25T10:13:34;26.29;52.10
75387;DHT22;63966;47.914;22.266;2023-05-25T10:16:39;26.38;52.31
75387;DHT22;63966;47.914;22.266;2023-05-25T10:19:54;26.18;52.41
75387;DHT22;63966;47.914;22.266;2023-05-25T10:23:25;26.21;53.66
75387;DHT22;63966;47.914;22.266;2023-05-25T10:26:34;25.77;55.28
75387;DHT22;63966;47.914;22.266;2023-05-25T10:29:39;25.70;54.92
75387;DHT22;63966;47.914;22.266;2023-05-25T10:32:44;26.33;52.94
75387;DHT22;63966;47.914;22.266;2023-05-25T10:35:49;26.33;51.27
75387;DHT22;63966;47.914;22.266;2023-05-25T10:39:00;26.60;54.35
75387;DHT22;63966;47.914;22.266;2023-05-25T10:42:05;26.36;52.43
75387;DHT22;63966;47.914;22.266;2023-05-25T10:45:09;26.82;51.65
75387;DHT22;63966;47.914;22.266;2023-05-25T10:48:14;26.98;52.21
75387;DHT22;63966;47.914;22.266;2023-05-25T10:51:21;27.15;52.96
75387;DHT22;63966;47.914;22.266;2023-05-25T10:54:29;27.00;51.85
75387;DHT22;63966;47.914;22.266;2023-05-25T10:57:34;27.10;53.37
75387;DHT22;63966;47.914;22.266;2023-05-25T11:00:38;26.90;52.38
75387;DHT22;63966;47.914;22.266;2023-05-25T11:03:53;26.60;52.31
75387;DHT22;63966;47.914;22.266;2023-05-25T11:07:03;26.72;52.42
75387;DHT22;63966;47.914;22.266;2023-05-25T11:13:52;26.43;50.64
75387;DHT22;63966;47.914;22.266;2023-05-25T11:20:25;25.71;53.95
75387;DHT22;63966;47.914;22.266;2023-05-25T11:23:29;25.85;53.93
75387;DHT22;63966;47.914;22.266;2023-05-25T11:26:34;25.94;53.85
75387;DHT22;63966;47.914;22.266;2023-05-25T11:29:38;25.75;53.42
75387;DHT22;63966;47.914;22.266;2023-05-25T11:32:48;25.66;52.87
75387;DHT22;63966;47.914;22.266;2023-05-25T11:35:54;25.74;53.19
75387;DHT22;63966;47.914;22.266;2023-05-25T11:39:05;26.14;54.80
75387;DHT22;63966;47.914;22.266;2023-05-25T11:42:23;25.95;54.98
75387;DHT22;63966;47.914;22.266;2023-05-25T11:45:28;26.12;51.87
75387;DHT22;63966;47.914;22.266;2023-05-25T11:48:32;26.15;53.19
75387;DHT22;63966;47.914;22.266;2023-05-25T11:51:35;26.59;52.16
75387;DHT22;63966;47.914;22.266;2023-05-25T11:54:40;26.93;52.10
75387;DHT22;63966;47.914;22.266;2023-05-25T11:57:44;26.43;51.87
75387;DHT22;63966;47.914;22.266;2023-05-25T12:00:48;26.11;53.56
75387;DHT22;63966;47.914;22.266;2023-05-25T12:03:52;25.95;55.85
75387;DHT22;63966;47.914;22.266;2023-05-25T12:07:06;26.28;52.30
75387;DHT22;63966;47.914;22.266;2023-05-25T12:10:11;26.33;52.01
75387;DHT22;63966;47.914;22.266;2023-05-25T12:13:15;26.01;52.90
75387;DHT22;63966;47.914;22.266;2023-05-25T12:16:18;26.18;51.97
75387;DHT22;63966;47.914;22.266;2023-05-25T12:19:22;26.09;53.57
75387;DHT22;63966;47.914;22.266;2023-05-25T12:22:26;26.36;54.47
75387;DHT22;63966;47.914;22.266;2023-05-25T12:25:31;26.20;52.30
75387;DHT22;63966;47.914;22.266;2023-05-25T12:32:04;25.83;52.22
75387;DHT22;63966;47.914;22.266;2023-05-25T12:35:09;26.00;52.34
75387;DHT22;63966;47.914;22.266;2023-05-25T12:38:17;26.26;51.03
75387;DHT22;63966;47.914;22.266;2023-05-25T12:41:20;26.35;50.22
75387;DHT22;63966;47.914;22.266;2023-05-25T12:44:34;26.53;50.50
75387;DHT22;63966;47.914;22.266;2023-05-25T12:47:38;26.48;52.63
75387;DHT22;63966;47.914;22.266;2023-05-25T12:50:57;26.50;50.03
75387;DHT22;63966;47.914;22.266;2023-05-25T12:54:00;26.26;50.83
75387;DHT22;63966;47.914;22.266;2023-05-25T12:57:05;25.90;52.24
75387;DHT22;63966;47.914;22.266;2023-05-25T13:00:09;25.80;53.63
75387;DHT22;63966;47.914;22.266;2023-05-25T13:03:17;25.63;53.51
75387;DHT22;63966;47.914;22.266;2023-05-25T13:06:20;25.64;52.56
75387;DHT22;63966;47.914;22.266;2023-05-25T13:09:25;25.54;53.23
75387;DHT22;63966;47.914;22.266;2023-05-25T13:12:31;25.45;52.24
75387;DHT22;63966;47.914;22.266;2023-05-25T13:15:34;25.49;52.67
75387;DHT22;63966;47.914;22.266;2023-05-25T13:18:39;25.62;53.37
75387;DHT22;63966;47.914;22.266;2023-05-25T13:21:46;25.67;52.81
75387;DHT22;63966;47.914;22.266;2023-05-25T13:24:51;25.49;53.90
75387;DHT22;63966;47.914;22.266;2023-05-25T13:27:56;25.59;53.61
75387;DHT22;63966;47.914;22.266;2023-05-25T13:31:02;25.57;52.63
75387;DHT22;63966;47.914;22.266;2023-05-25T13:34:05;25.39;52.88
75387;DHT22;63966;47.914;22.266;2023-05-25T13:37:08;25.50;52.40
75387;DHT22;63966;47.914;22.266;2023-05-25T13:40:13;25.50;52.15
75387;DHT22;63966;47.914;22.266;2023-05-25T13:43:37;25.56;51.22
75387;DHT22;63966;47.914;22.266;2023-05-25T13:47:00;25.49;50.79
75387;DHT22;63966;47.914;22.266;2023-05-25T13:50:23;25.32;51.02
75387;DHT22;63966;47.914;22.266;2023-05-25T13:53:47;25.37;50.36
75387;DHT22;63966;47.914;22.266;2023-05-25T13:57:10;25.62;51.52
75387;DHT22;63966;47.914;22.266;2023-05-25T14:00:14;25.37;50.43
75387;DHT22;63966;47.914;22.266;2023-05-25T14:03:17;25.33;50.70
75387;DHT22;63966;47.914;22.266;2023-05-25T14:06:21;25.23;49.71
75387;DHT22;63966;47.914;22.266;2023-05-25T14:09:24;25.01;49.57
75387;DHT22;63966;47.914;22.266;2023-05-25T14:12:28;25.08;49.54
75387;DHT22;63966;47.914;22.266;2023-05-25T14:15:31;25.05;49.52
75387;DHT22;63966;47.914;22.266;2023-05-25T14:18:35;25.02;49.71
75387;DHT22;63966;47.914;22.266;2023-05-25T14:21:38;25.01;50.46
75387;DHT22;63966;47.914;22.266;2023-05-25T14:24:41;25.14;50.03
75387;DHT22;63966;47.914;22.266;2023-05-25T14:27:45;25.18;48.89
75387;DHT22;63966;47.914;22.266;2023-05-25T14:30:48;25.04;50.05
75387;DHT22;63966;47.914;22.266;2023-05-25T14:33:53;24.94;50.45
75387;DHT22;63966;47.914;22.266;2023-05-25T14:36:56;24.89;51.37
75387;DHT22;63966;47.914;22.266;2023-05-25T14:39:59;24.96;51.01
75387;DHT22;63966;47.914;22.266;2023-05-25T14:43:03;24.96;51.50
75387;DHT22;63966;47.914;22.266;2023-05-25T14:46:06;24.79;51.25
75387;DHT22;63966;47.914;22.266;2023-05-25T14:49:10;24.92;52.23
75387;DHT22;63966;47.914;22.266;2023-05-25T14:52:15;24.95;53.34
75387;DHT22;63966;47.914;22.266;2023-05-25T14:55:19;24.95;52.89
75387;DHT22;63966;47.914;22.266;2023-05-25T14:58:22;24.94;53.01
75387;DHT22;63966;47.914;22.266;2023-05-25T15:01:26;24.88;54.15
75387;DHT22;63966;47.914;22.266;2023-05-25T15:04:31;24.85;53.79
75387;DHT22;63966;47.914;22.266;2023-05-25T15:07:35;24.82;54.32
75387;DHT22;63966;47.914;22.266;2023-05-25T15:10:38;24.74;55.36
75387;DHT22;63966;47.914;22.266;2023-05-25T15:13:41;24.64;53.58
75387;DHT22;63966;47.914;22.266;2023-05-25T15:16:45;24.70;53.32
75387;DHT22;63966;47.914;22.266;2023-05-25T15:19:48;24.54;53.44
75387;DHT22;63966;47.914;22.266;2023-05-25T15:22:51;24.41;51.95
75387;DHT22;63966;47.914;22.266;2023-05-25T15:25:55;24.40;52.26
75387;DHT22;63966;47.914;22.266;2023-05-25T15:28:59;24.46;52.60
75387;DHT22;63966;47.914;22.266;2023-05-25T15:32:03;24.44;52.29
75387;DHT22;63966;47.914;22.266;2023-05-25T15:35:07;24.46;53.03
75387;DHT22;63966;47.914;22.266;2023-05-25T15:38:10;24.56;55.53
75387;DHT22;63966;47.914;22.266;2023-05-25T15:41:14;24.53;54.61
75387;DHT22;63966;47.914;22.266;2023-05-25T15:44:18;24.44;55.16
75387;DHT22;63966;47.914;22.266;2023-05-25T15:47:23;24.30;54.53
75387;DHT22;63966;47.914;22.266;2023-05-25T15:50:26;24.26;54.53
75387;DHT22;63966;47.914;22.266;2023-05-25T15:53:30;24.19;55.96
75387;DHT22;63966;47.914;22.266;2023-05-25T15:56:33;24.16;55.78
75387;DHT22;63966;47.914;22.266;2023-05-25T15:59:37;24.13;55.90
75387;DHT22;63966;47.914;22.266;2023-05-25T16:02:40;24.09;57.11
75387;DHT22;63966;47.914;22.266;2023-05-25T16:05:43;24.01;56.78
75387;DHT22;63966;47.914;22.266;2023-05-25T16:08:47;23.85;57.18
75387;DHT22;63966;47.914;22.266;2023-05-25T16:11:51;23.79;57.77
75387;DHT22;63966;47.914;22.266;2023-05-25T16:14:54;23.69;58.96
75387;DHT22;63966;47.914;22.266;2023-05-25T16:17:58;23.64;59.34
75387;DHT22;63966;47.914;22.266;2023-05-25T16:21:03;23.64;58.87
75387;DHT22;63966;47.914;22.266;2023-05-25T16:24:07;23.55;59.93
75387;DHT22;63966;47.914;22.266;2023-05-25T16:27:10;23.51;60.45
75387;DHT22;63966;47.914;22.266;2023-05-25T16:30:13;23.40;61.68
75387;DHT22;63966;47.914;22.266;2023-05-25T16:33:17;23.24;62.20
75387;DHT22;63966;47.914;22.266;2023-05-25T16:36:20;23.14;63.08
75387;DHT22;63966;47.914;22.266;2023-05-25T16:39:23;23.07;62.90
75387;DHT22;63966;47.914;22.266;2023-05-25T16:42:27;22.92;64.00
75387;DHT22;63966;47.914;22.266;2023-05-25T16:45:31;22.87;63.24
75387;DHT22;63966;47.914;22.266;2023-05-25T16:48:35;22.80;63.20
75387;DHT22;63966;47.914;22.266;2023-05-25T16:51:38;22.75;63.78
75387;DHT22;63966;47.914;22.266;2023-05-25T16:54:41;22.65;64.74
75387;DHT22;63966;47.914;22.266;2023-05-25T16:57:45;22.60;64.89
75387;DHT22;63966;47.914;22.266;2023-05-25T17:00:48;22.58;64.49
75387;DHT22;63966;47.914;22.266;2023-05-25T17:03:52;22.51;64.71
75387;DHT22;63966;47.914;22.266;2023-05-25T17:06:55;22.48;64.92
75387;DHT22;63966;47.914;22.266;2023-05-25T17:09:59;22.28;66.06
75387;DHT22;63966;47.914;22.266;2023-05-25T17:13:02;22.18;66.64
75387;DHT22;63966;47.914;22.266;2023-05-25T17:16:06;22.04;67.53
75387;DHT22;63966;47.914;22.266;2023-05-25T17:19:09;21.96;67.54
75387;DHT22;63966;47.914;22.266;2023-05-25T17:22:12;21.87;68.05
75387;DHT22;63966;47.914;22.266;2023-05-25T17:25:16;21.82;68.90
75387;DHT22;63966;47.914;22.266;2023-05-25T17:28:19;21.66;69.37
75387;DHT22;63966;47.914;22.266;2023-05-25T17:31:22;21.55;69.95
75387;DHT22;63966;47.914;22.266;2023-05-25T17:34:26;21.47;70.53
75387;DHT22;63966;47.914;22.266;2023-05-25T17:37:29;21.28;71.11
75387;DHT22;63966;47.914;22.266;2023-05-25T17:40:32;21.19;71.28
75387;DHT22;63966;47.914;22.266;2023-05-25T17:43:36;21.15;71.04
75387;DHT22;63966;47.914;22.266;2023-05-25T17:46:39;21.11;71.29
75387;DHT22;63966;47.914;22.266;2023-05-25T17:49:42;21.08;71.60
75387;DHT22;63966;47.914;22.266;2023-05-25T17:52:46;20.92;72.27
75387;DHT22;63966;47.914;22.266;2023-05-25T17:55:49;20.80;73.19
75387;DHT22;63966;47.914;22.266;2023-05-25T17:58:52;20.64;73.54
75387;DHT22;63966;47.914;22.266;2023-05-25T18:01:56;20.53;73.80
75387;DHT22;63966;47.914;22.266;2023-05-25T18:04:59;20.44;74.06
75387;DHT22;63966;47.914;22.266;2023-05-25T18:08:03;20.36;74.01
75387;DHT22;63966;47.914;22.266;2023-05-25T18:11:07;20.39;73.78
75387;DHT22;63966;47.914;22.266;2023-05-25T18:14:10;20.23;74.23
75387;DHT22;63966;47.914;22.266;2023-05-25T18:17:13;20.12;74.65
75387;DHT22;63966;47.914;22.266;2023-05-25T18:20:17;20.01;74.76
75387;DHT22;63966;47.914;22.266;2023-05-25T18:23:20;19.91;74.97
75387;DHT22;63966;47.914;22.266;2023-05-25T18:26:24;19.81;75.41
75387;DHT22;63966;47.914;22.266;2023-05-25T18:29:28;19.67;76.00
75387;DHT22;63966;47.914;22.266;2023-05-25T18:32:33;19.63;76.14
75387;DHT22;63966;47.914;22.266;2023-05-25T18:35:36;19.55;76.44
75387;DHT22;63966;47.914;22.266;2023-05-25T18:38:40;19.55;76.38
75387;DHT22;63966;47.914;22.266;2023-05-25T18:41:43;19.41;76.70
75387;DHT22;63966;47.914;22.266;2023-05-25T18:44:46;19.36;76.51
75387;DHT22;63966;47.914;22.266;2023-05-25T18:47:50;19.22;76.69
75387;DHT22;63966;47.914;22.266;2023-05-25T18:50:53;19.16;77.00
75387;DHT22;63966;47.914;22.266;2023-05-25T18:53:57;19.09;76.84
75387;DHT22;63966;47.914;22.266;2023-05-25T18:57:01;19.03;76.59
75387;DHT22;63966;47.914;22.266;2023-05-25T19:00:05;18.98;76.84
75387;DHT22;63966;47.914;22.266;2023-05-25T19:03:10;18.81;77.27
75387;DHT22;63966;47.914;22.266;2023-05-25T19:06:14;18.68;77.49
75387;DHT22;63966;47.914;22.266;2023-05-25T19:09:17;18.61;78.12
75387;DHT22;63966;47.914;22.266;2023-05-25T19:12:21;18.49;78.51
75387;DHT22;63966;47.914;22.266;2023-05-25T19:15:24;18.41;78.57
75387;DHT22;63966;47.914;22.266;2023-05-25T19:18:28;18.30;78.66
75387;DHT22;63966;47.914;22.266;2023-05-25T19:21:31;18.30;78.44
75387;DHT22;63966;47.914;22.266;2023-05-25T19:24:35;18.30;78.41